Time;durP1;ratioP1;P1;durP2;ratioP2;P2;SDS_P1;SDS_P2;PMS_P1;PMS_P2;Temp;Humidity;BMP_temperature;BMP_pressure;BME280_temperature;BME280_humidity;BME280_pressure;Samples;Min_cycle;Max_cycle;Signal;HPM_P1;HPM_P2
2023/09/23 00:01:32;;;;;;;18.23;5.53;;;24.20;63.80;;;;;;5052771;28;20548;-82
2023/09/23 00:03:58;;;;;;;27.58;5.57;;;24.20;63.90;;;;;;5048785;28;20021;-81
2023/09/23 00:06:24;;;;;;;20.08;5.82;;;24.20;64.20;;;;;;5049870;28;20021;-82
2023/09/23 00:08:50;;;;;;;26.95;5.30;;;24.20;64.30;;;;;;5049826;28;20025;-81
2023/09/23 00:11:16;;;;;;;21.73;4.85;;;24.20;64.60;;;;;;5052114;28;20051;-81
2023/09/23 00:13:43;;;;;;;26.48;5.05;;;24.20;64.50;;;;;;5053543;28;20040;-82
2023/09/23 00:16:14;;;;;;;23.65;4.63;;;24.20;64.90;;;;;;5050194;28;20033;-82
2023/09/23 00:18:41;;;;;;;35.63;6.00;;;24.20;65.20;;;;;;5050948;28;20025;-81
2023/09/23 00:21:07;;;;;;;35.78;5.57;;;24.20;64.90;;;;;;5049750;28;20455;-82
2023/09/23 00:23:34;;;;;;;24.30;4.60;;;24.20;65.00;;;;;;5050477;28;20028;-82
2023/09/23 00:26:02;;;;;;;20.15;5.30;;;24.20;64.80;;;;;;5049466;28;20024;-83
2023/09/23 00:28:30;;;;;;;16.25;4.55;;;24.20;64.90;;;;;;5051488;28;20037;-82
2023/09/23 00:31:14;;;;;;;30.23;4.25;;;24.20;65.10;;;;;;5050173;28;20050;-82
2023/09/23 00:33:41;;;;;;;19.98;4.72;;;24.20;64.80;;;;;;5048444;28;20021;-80
2023/09/23 00:36:11;;;;;;;21.33;4.25;;;24.20;64.80;;;;;;5048255;28;20368;-82
2023/09/23 00:38:37;;;;;;;19.45;4.82;;;24.20;64.80;;;;;;5050591;28;20116;-81
2023/09/23 00:41:04;;;;;;;27.55;4.00;;;24.20;65.20;;;;;;5048078;28;20021;-81
2023/09/23 00:43:32;;;;;;;20.23;5.53;;;24.20;65.30;;;;;;5049684;28;20040;-80
2023/09/23 00:46:00;;;;;;;27.75;5.70;;;24.20;65.20;;;;;;5069324;28;20029;-81
2023/09/23 00:48:26;;;;;;;16.58;4.55;;;24.20;64.70;;;;;;5056515;28;20025;-83
2023/09/23 00:50:54;;;;;;;25.27;4.85;;;24.30;64.60;;;;;;5048394;28;20033;-81
2023/09/23 00:53:21;;;;;;;18.50;4.72;;;24.20;64.10;;;;;;5054958;28;20025;-81
2023/09/23 00:55:55;;;;;;;10.20;3.40;;;24.30;64.50;;;;;;5056737;28;20056;-81
2023/09/23 00:58:22;;;;;;;23.05;4.90;;;24.30;65.10;;;;;;5045397;28;20029;-82
2023/09/23 01:00:49;;;;;;;26.92;3.53;;;24.30;65.00;;;;;;5044414;28;20033;-82
2023/09/23 01:03:18;;;;;;;31.95;5.78;;;24.30;65.30;;;;;;5054986;28;20028;-81
2023/09/23 01:05:45;;;;;;;18.15;4.13;;;24.30;65.60;;;;;;5056355;28;20063;-81
2023/09/23 01:08:12;;;;;;;25.35;4.20;;;24.30;65.10;;;;;;5055850;28;20064;-83
2023/09/23 01:10:38;;;;;;;19.85;3.92;;;24.20;65.00;;;;;;5041351;28;20025;-83
2023/09/23 01:13:07;;;;;;;13.40;4.15;;;24.20;64.60;;;;;;5040092;28;20022;-81
2023/09/23 01:15:40;;;;;;;19.88;4.38;;;24.20;64.90;;;;;;5037708;28;20055;-81
2023/09/23 01:18:08;;;;;;;20.63;3.95;;;24.20;64.70;;;;;;5036189;28;20112;-83
2023/09/23 01:20:37;;;;;;;26.58;5.72;;;24.10;65.10;;;;;;5038592;28;20075;-82
2023/09/23 01:23:05;;;;;;;30.52;5.38;;;24.20;65.70;;;;;;5037088;28;20049;-81
2023/09/23 01:25:30;;;;;;;30.52;4.32;;;24.10;66.30;;;;;;5036196;28;20052;-81
2023/09/23 01:27:56;;;;;;;18.38;5.00;;;24.10;66.00;;;;;;5034729;28;20068;-83
2023/09/23 01:30:24;;;;;;;20.90;3.90;;;24.10;65.70;;;;;;5040205;28;20022;-82
2023/09/23 01:32:51;;;;;;;28.02;5.32;;;24.10;65.20;;;;;;5040190;28;20025;-81
2023/09/23 01:35:20;;;;;;;24.65;5.10;;;24.10;65.30;;;;;;5038230;28;20116;-82
2023/09/23 01:37:46;;;;;;;18.95;4.15;;;24.20;64.60;;;;;;5037365;28;20037;-81
2023/09/23 01:40:19;;;;;;;19.45;4.35;;;24.20;64.30;;;;;;5035690;28;20032;-81
2023/09/23 01:42:48;;;;;;;16.33;4.63;;;24.20;63.90;;;;;;5036857;28;20049;-81
2023/09/23 01:45:14;;;;;;;24.38;3.65;;;24.30;63.80;;;;;;5037317;28;20029;-83
2023/09/23 01:47:44;;;;;;;17.40;3.40;;;24.30;63.90;;;;;;5029260;28;20059;-81
2023/09/23 01:50:10;;;;;;;23.35;4.15;;;24.30;63.90;;;;;;5038061;28;20132;-83
2023/09/23 01:52:37;;;;;;;30.05;3.50;;;24.30;64.00;;;;;;5034719;28;20025;-82
2023/09/23 01:55:05;;;;;;;20.08;4.10;;;24.30;63.80;;;;;;5033881;28;20025;-83
2023/09/23 01:57:33;;;;;;;25.17;3.63;;;24.30;64.10;;;;;;5034298;28;20037;-81
2023/09/23 02:00:00;;;;;;;34.92;5.13;;;24.30;64.90;;;;;;5035360;28;20033;-81
2023/09/23 02:02:27;;;;;;;34.35;5.60;;;24.20;65.30;;;;;;5036633;28;20019;-81
2023/09/23 02:04:53;;;;;;;24.58;4.30;;;24.20;66.50;;;;;;5034768;28;20459;-82
2023/09/23 02:07:19;;;;;;;34.70;5.47;;;24.20;66.70;;;;;;5035272;28;20071;-83
2023/09/23 02:09:45;;;;;;;20.73;3.97;;;24.20;66.60;;;;;;5034846;28;20021;-81
2023/09/23 02:12:12;;;;;;;31.48;5.15;;;24.10;66.90;;;;;;5038156;28;20032;-83
2023/09/23 02:14:41;;;;;;;27.83;5.15;;;24.10;67.00;;;;;;5038777;28;20043;-82
2023/09/23 02:17:08;;;;;;;20.88;4.68;;;24.20;67.80;;;;;;5036628;28;20021;-82
2023/09/23 02:19:34;;;;;;;38.63;5.88;;;24.10;68.30;;;;;;5034742;28;20048;-82
2023/09/23 02:22:05;;;;;;;21.17;3.97;;;24.10;68.00;;;;;;5037219;28;20372;-81
2023/09/23 02:24:32;;;;;;;26.23;4.93;;;24.00;68.50;;;;;;5034741;28;20104;-83
2023/09/23 02:26:58;;;;;;;19.15;4.53;;;24.00;68.60;;;;;;5035208;28;20026;-80
2023/09/23 02:29:24;;;;;;;29.13;4.90;;;23.90;69.00;;;;;;5039142;28;20429;-81
2023/09/23 02:31:50;;;;;;;21.52;4.47;;;23.90;69.70;;;;;;5038316;28;20407;-81
2023/09/23 02:34:20;;;;;;;23.10;5.15;;;23.90;69.80;;;;;;5034678;28;20021;-83
2023/09/23 02:36:47;;;;;;;31.58;5.90;;;23.80;70.30;;;;;;5038001;28;20021;-82
2023/09/23 02:39:17;;;;;;;27.38;4.68;;;23.80;70.60;;;;;;5034463;28;20049;-81
2023/09/23 02:41:50;;;;;;;30.30;6.13;;;23.70;71.50;;;;;;5036301;28;20020;-81
2023/09/23 02:44:20;;;;;;;27.52;4.90;;;23.60;71.70;;;;;;5039951;28;20108;-82
2023/09/23 02:46:49;;;;;;;28.17;5.70;;;23.60;72.00;;;;;;5051028;28;20028;-82
2023/09/23 02:49:16;;;;;;;28.85;5.82;;;23.60;73.00;;;;;;5052725;28;20040;-80
2023/09/23 02:51:42;;;;;;;24.33;5.00;;;23.50;73.20;;;;;;5053960;28;20021;-81
2023/09/23 02:54:11;;;;;;;22.95;4.07;;;23.50;73.90;;;;;;5052723;28;20027;-82
2023/09/23 02:56:37;;;;;;;20.95;4.18;;;23.50;73.90;;;;;;5052990;28;20021;-81
2023/09/23 02:59:13;;;;;;;25.58;4.45;;;23.50;73.90;;;;;;5039132;28;20037;-80
2023/09/23 03:01:45;;;;;;;25.60;4.53;;;23.50;74.60;;;;;;5040349;28;20353;-80
2023/09/23 03:04:18;;;;;;;31.77;7.40;;;23.50;74.90;;;;;;5034026;28;20108;-80
2023/09/23 03:06:56;;;;;;;23.50;5.18;;;23.50;75.00;;;;;;5035689;28;20025;-81
2023/09/23 03:09:25;;;;;;;25.80;5.95;;;23.50;75.30;;;;;;5040185;28;20025;-81
2023/09/23 03:11:55;;;;;;;26.30;5.55;;;23.50;75.40;;;;;;5052783;28;20029;-81
2023/09/23 03:14:30;;;;;;;29.38;5.00;;;23.50;76.30;;;;;;5053035;28;20112;-82
2023/09/23 03:16:57;;;;;;;27.25;4.45;;;23.50;77.30;;;;;;5032330;28;20068;-83
2023/09/23 03:19:26;;;;;;;23.27;4.55;;;23.50;77.10;;;;;;5036094;28;20114;-82
2023/09/23 03:21:55;;;;;;;36.10;6.20;;;23.50;77.60;;;;;;5035977;28;20112;-82
2023/09/23 03:24:22;;;;;;;21.88;4.78;;;23.50;78.10;;;;;;5041438;28;20029;-82
2023/09/23 03:26:50;;;;;;;30.48;5.45;;;23.50;78.80;;;;;;5044986;28;20028;-81
2023/09/23 03:29:18;;;;;;;37.08;5.90;;;23.40;77.80;;;;;;5039012;28;20100;-81
2023/09/23 03:31:44;;;;;;;33.75;4.85;;;23.40;78.70;;;;;;5048222;28;20024;-81
2023/09/23 03:34:13;;;;;;;31.08;6.80;;;23.40;79.00;;;;;;5053146;28;20029;-81
2023/09/23 03:36:39;;;;;;;25.30;4.68;;;23.30;79.40;;;;;;5052376;28;20040;-81
2023/09/23 03:39:06;;;;;;;32.88;5.10;;;23.30;79.00;;;;;;5052279;28;20144;-81
2023/09/23 03:41:33;;;;;;;23.05;5.20;;;23.30;79.30;;;;;;5041115;28;20371;-83
2023/09/23 03:43:59;;;;;;;28.05;4.72;;;23.30;79.90;;;;;;5038333;28;20549;-81
2023/09/23 03:46:25;;;;;;;19.42;5.65;;;23.30;80.70;;;;;;5031403;28;20018;-81
2023/09/23 03:48:50;;;;;;;19.88;4.43;;;23.20;81.40;;;;;;5033168;28;20456;-82
2023/09/23 03:51:17;;;;;;;24.02;5.40;;;23.20;81.70;;;;;;5032842;28;20029;-81
2023/09/23 03:53:48;;;;;;;16.15;5.00;;;23.20;82.50;;;;;;5032898;28;20020;-82
2023/09/23 03:56:14;;;;;;;25.65;4.72;;;23.20;82.80;;;;;;5035394;28;20026;-81
2023/09/23 03:58:40;;;;;;;28.48;6.57;;;23.20;83.90;;;;;;5034702;28;20034;-81
2023/09/23 04:01:13;;;;;;;24.77;5.28;;;23.20;85.50;;;;;;5033529;28;20028;-82
2023/09/23 04:03:40;;;;;;;20.02;4.72;;;23.20;85.40;;;;;;5028936;28;20025;-81
2023/09/23 04:06:06;;;;;;;30.60;6.53;;;23.10;85.40;;;;;;5032876;28;20018;-81
2023/09/23 04:08:31;;;;;;;36.83;6.10;;;23.20;86.20;;;;;;5034519;28;20147;-81
2023/09/23 04:11:03;;;;;;;37.60;5.60;;;23.10;87.10;;;;;;5032897;28;20022;-80
2023/09/23 04:14:37;;;;;;;22.95;5.20;;;23.00;88.30;;;;;;5158391;27;20332;-80
2023/09/23 04:17:03;;;;;;;27.02;5.50;;;22.80;90.70;;;;;;5121880;27;20368;-79
2023/09/23 04:19:29;;;;;;;28.35;6.85;;;22.70;92.10;;;;;;5151962;27;20410;-79
2023/09/23 04:21:56;;;;;;;24.00;5.55;;;22.60;93.90;;;;;;5151803;27;20072;-79
2023/09/23 04:24:22;;;;;;;21.15;5.70;;;22.50;96.00;;;;;;5151894;27;20023;-78
2023/09/23 04:26:49;;;;;;;29.40;6.75;;;22.40;97.40;;;;;;5133807;27;20022;-81
2023/09/23 04:29:20;;;;;;;27.33;5.38;;;22.40;98.70;;;;;;5151750;27;20022;-84
2023/09/23 04:31:46;;;;;;;26.10;5.30;;;22.30;99.70;;;;;;5132990;27;20034;-84
2023/09/23 04:34:13;;;;;;;25.10;5.57;;;22.30;99.90;;;;;;5132967;27;20031;-83
2023/09/23 04:36:39;;;;;;;26.20;6.28;;;22.40;99.90;;;;;;5133553;27;20413;-83
2023/09/23 04:39:06;;;;;;;24.95;6.07;;;22.40;99.90;;;;;;5133402;27;20496;-83
2023/09/23 04:41:32;;;;;;;27.92;5.70;;;22.40;99.90;;;;;;5133334;27;20087;-82
2023/09/23 04:43:58;;;;;;;18.13;5.20;;;22.40;99.90;;;;;;5132947;27;20034;-82
2023/09/23 04:46:24;;;;;;;29.40;5.47;;;22.30;99.90;;;;;;5133804;27;20019;-83
2023/09/23 04:48:50;;;;;;;25.65;6.43;;;22.40;99.90;;;;;;5133693;27;20027;-83
2023/09/23 04:51:17;;;;;;;20.38;5.50;;;22.40;99.90;;;;;;5133267;27;20038;-82
2023/09/23 04:53:43;;;;;;;25.27;5.20;;;22.40;99.90;;;;;;5133547;27;20031;-82
2023/09/23 04:56:10;;;;;;;24.13;6.75;;;22.40;99.90;;;;;;5133533;27;20050;-82
2023/09/23 04:58:36;;;;;;;25.50;6.72;;;22.40;99.90;;;;;;5151324;27;20342;-82
2023/09/23 05:01:03;;;;;;;20.30;6.50;;;22.40;99.90;;;;;;5133392;27;20030;-82
2023/09/23 05:03:30;;;;;;;28.98;6.68;;;22.40;99.90;;;;;;5133513;27;20054;-84
2023/09/23 05:05:55;;;;;;;27.77;7.93;;;22.40;99.90;;;;;;5151328;27;20070;-83
2023/09/23 05:08:21;;;;;;;25.20;8.35;;;22.40;99.90;;;;;;5133322;27;20046;-81
2023/09/23 05:10:47;;;;;;;26.08;7.65;;;22.50;99.90;;;;;;5151500;27;20018;-82
2023/09/23 05:13:17;;;;;;;27.48;6.93;;;22.50;99.90;;;;;;5150452;27;20039;-82
2023/09/23 05:15:43;;;;;;;35.53;8.07;;;22.50;99.90;;;;;;5132659;27;20015;-83
2023/09/23 05:18:08;;;;;;;22.80;6.93;;;22.60;99.90;;;;;;5151044;27;20078;-81
2023/09/23 05:20:34;;;;;;;26.90;6.72;;;22.60;99.90;;;;;;5150704;27;20023;-83
2023/09/23 05:23:05;;;;;;;26.98;7.22;;;22.70;99.90;;;;;;5150783;27;20029;-82
2023/09/23 05:25:31;;;;;;;25.65;6.47;;;;;;;;;;5120972;27;20027;-82
2023/09/23 05:27:57;;;;;;;32.40;7.13;;;22.90;99.90;;;;;;5136689;27;20071;-81
2023/09/23 05:30:26;;;;;;;34.08;8.90;;;23.00;99.90;;;;;;5136710;27;20058;-82
2023/09/23 05:32:52;;;;;;;27.77;8.25;;;22.90;99.90;;;;;;5131679;27;20156;-83
2023/09/23 05:35:18;;;;;;;39.03;7.20;;;23.00;99.90;;;;;;5136722;27;20105;-81
2023/09/23 05:37:44;;;;;;;22.20;5.68;;;23.10;99.90;;;;;;5137355;27;20019;-82
2023/09/23 05:40:34;;;;;;;16.67;5.35;;;23.10;99.90;;;;;;5115202;27;20049;-81
2023/09/23 05:42:56;;;;;;;32.67;6.75;;;23.10;99.90;;;;;;5135558;27;20045;-82
2023/09/23 05:45:25;;;;;;;31.70;7.22;;;23.10;99.90;;;;;;5118708;27;20027;-83
2023/09/23 05:47:54;;;;;;;40.88;10.70;;;23.20;99.90;;;;;;5136534;27;20023;-82
2023/09/23 05:50:20;;;;;;;70.05;34.17;;;23.20;99.90;;;;;;5118429;27;20460;-83
2023/09/23 05:52:47;;;;;;;35.97;14.23;;;23.20;99.90;;;;;;5136646;27;20027;-82
2023/09/23 05:55:14;;;;;;;46.05;11.43;;;23.20;99.90;;;;;;5136356;27;20027;-83
2023/09/23 05:57:40;;;;;;;35.00;9.68;;;23.20;99.90;;;;;;5136124;27;20019;-82
2023/09/23 06:00:11;;;;;;;31.98;9.55;;;23.10;99.90;;;;;;5136498;27;20027;-82
2023/09/23 06:02:41;;;;;;;49.58;10.50;;;23.20;99.90;;;;;;5132799;27;20034;-80
2023/09/23 06:05:07;;;;;;;61.42;27.50;;;23.10;99.90;;;;;;5136137;27;20064;-82
2023/09/23 06:07:33;;;;;;;51.30;18.67;;;23.20;99.90;;;;;;5117450;27;20019;-82
2023/09/23 06:09:59;;;;;;;46.70;17.00;;;23.20;99.90;;;;;;5135841;27;20031;-83
2023/09/23 06:12:32;;;;;;;31.80;10.88;;;23.10;99.90;;;;;;5135883;27;20540;-83
2023/09/23 06:15:01;;;;;;;39.30;9.55;;;23.10;99.90;;;;;;5136276;27;20473;-82
2023/09/23 06:17:28;;;;;;;46.42;17.70;;;23.10;99.90;;;;;;5117596;27;20488;-81
2023/09/23 06:19:57;;;;;;;38.13;12.25;;;23.10;99.90;;;;;;5136439;27;20099;-82
2023/09/23 06:22:23;;;;;;;33.88;8.65;;;23.10;99.90;;;;;;5131042;27;20407;-81
2023/09/23 06:24:50;;;;;;;37.22;8.98;;;23.10;99.90;;;;;;5135719;27;20461;-80
2023/09/23 06:27:16;;;;;;;33.45;7.90;;;23.20;99.90;;;;;;5117319;27;20034;-80
2023/09/23 06:29:46;;;;;;;27.00;8.20;;;23.20;99.90;;;;;;5117236;27;20102;-79
2023/09/23 06:32:14;;;;;;;22.63;7.22;;;23.30;99.90;;;;;;5117334;27;20015;-80
2023/09/23 06:34:40;;;;;;;34.35;7.70;;;23.20;99.90;;;;;;5117099;27;20470;-81
2023/09/23 06:37:05;;;;;;;26.55;7.05;;;23.10;99.90;;;;;;5133326;27;20027;-81
2023/09/23 06:54:07;;;;;;;36.97;5.72;;;22.80;99.90;;;;;;5090966;27;20457;-81
2023/09/23 06:56:34;;;;;;;30.83;6.35;;;22.90;99.90;;;;;;5079089;28;20024;-81
2023/09/23 06:59:37;;;;;;;26.48;6.88;;;;;;;;;;5167712;27;20668;-82
2023/09/23 07:03:36;;;;;;;35.58;5.63;;;23.30;99.90;;;;;;5070960;28;20376;-84
2023/09/23 07:09:00;;;;;;;14.45;3.03;;;23.40;99.90;;;;;;5097760;27;20301;-83
2023/09/23 07:11:32;;;;;;;16.00;3.05;;;;;;;;;;5090956;28;20107;-84
2023/09/23 07:14:00;;;;;;;13.63;2.10;;;;;;;;;;5091303;28;20020;-82
2023/09/23 07:16:27;;;;;;;11.90;2.40;;;23.40;99.90;;;;;;5074808;28;20029;-83
2023/09/23 07:18:53;;;;;;;13.40;2.20;;;;;;;;;;5071513;28;20153;-83
2023/09/23 07:41:26;;;;;;;7.22;1.50;;;;;;;;;;5058085;28;20325;-82
2023/09/23 07:43:56;;;;;;;7.38;1.50;;;;;;;;;;5042629;28;20375;-85
2023/09/23 07:47:33;;;;;;;4.13;1.52;;;;;;;;;;5126986;27;20373;-81
2023/09/23 07:49:59;;;;;;;9.60;1.30;;;;;;;;;;5093375;28;20031;-80
2023/09/23 07:52:28;;;;;;;9.95;1.63;;;;;;;;;;5093203;28;20062;-84
2023/09/23 08:19:11;;;;;;;4.32;0.55;;;;;;;;;;5092410;27;1459396;-83
2023/09/23 08:21:38;;;;;;;8.68;0.70;;;;;;;;;;5110205;28;20024;-83
2023/09/23 08:24:04;;;;;;;1.92;0.40;;;;;;;;;;5110325;28;20054;-83
2023/09/23 08:26:33;;;;;;;3.22;0.85;;;;;;;;;;5107069;28;20053;-84
2023/09/23 08:28:59;;;;;;;4.65;1.85;;;;;;;;;;5113105;28;20023;-84
2023/09/23 08:31:28;;;;;;;3.97;0.90;;;;;;;;;;5129801;28;20027;-85
2023/09/23 08:34:24;;;;;;;2.67;0.63;;;;;;;;;;5130666;28;20407;-83
2023/09/23 08:41:57;;;;;;;4.57;1.08;;;;;;;;;;5096982;27;20398;-83
2023/09/23 08:44:25;;;;;;;7.68;1.13;;;;;;;;;;5072814;28;20039;-83
2023/09/23 08:46:53;;;;;;;3.85;0.75;;;;;;;;;;5090961;28;20108;-82
2023/09/23 08:49:35;;;;;;;4.40;0.90;;;;;;;;;;5072963;28;20039;-84
2023/09/23 08:52:09;;;;;;;2.97;1.05;;;;;;;;;;5072132;28;20524;-84
2023/09/23 09:00:56;;;;;;;6.55;1.35;;;;;;;;;;5017477;28;20037;-84
2023/09/23 09:03:23;;;;;;;7.40;1.42;;;;;;;;;;4985542;28;20065;-84
2023/09/23 09:05:58;;;;;;;5.90;1.02;;;;;;;;;;4997854;28;20411;-84
2023/09/23 09:08:43;;;;;;;4.45;0.98;;;;;;;;;;5006016;28;20022;-84
2023/09/23 09:11:27;;;;;;;6.47;1.92;;;;;;;;;;4992114;28;20026;-85
2023/09/23 09:13:54;;;;;;;6.63;1.35;;;;;;;;;;4990968;28;20112;-87
2023/09/23 09:16:20;;;;;;;5.82;1.13;;;;;;;;;;4992014;28;20113;-84
2023/09/23 09:18:53;;;;;;;3.05;0.95;;;;;;;;;;4991784;28;20073;-84
2023/09/23 09:21:30;;;;;;;2.22;0.80;;;;;;;;;;4991270;28;20520;-82
2023/09/23 09:24:33;;;;;;;3.20;0.77;;;;;;;;;;4990563;28;20046;-84
2023/09/23 09:42:36;;;;;;;6.55;0.98;;;;;;;;;;4954489;28;20111;-84
2023/09/23 09:45:16;;;;;;;13.82;2.15;;;;;;;;;;4968756;28;20414;-84
2023/09/23 09:50:55;;;;;;;5.18;1.33;;;;;;;;;;4970764;28;21619;-85
2023/09/23 09:56:35;;;;;;;9.93;4.03;;;;;;;;;;4955957;28;20122;-86
2023/09/23 09:59:05;;;;;;;6.45;3.20;;;;;;;;;;4955085;28;20035;-83
2023/09/23 10:05:09;;;;;;;5.65;1.88;;;;;;;;;;4950079;28;20034;-86
2023/09/23 10:07:59;;;;;;;2.47;1.15;;;;;;;;;;5024375;28;20025;-84
2023/09/23 10:10:46;;;;;;;16.60;4.03;;;;;;;;;;5041427;28;20034;-85
2023/09/23 10:22:39;;;;;;;5.00;1.17;;;;;;;;;;5064247;28;20028;-83
2023/09/23 10:25:11;;;;;;;;;;;;;;;;;;5049638;28;20012;-85
2023/09/23 10:27:47;;;;;;;;;;;;;;;;;;5049063;28;19905;-85
2023/09/23 10:30:45;;;;;;;9.68;1.58;;;;;;;;;;5056689;28;19940;-86
2023/09/23 10:36:23;;;;;;;9.55;2.00;;;;;;;;;;5068760;28;20020;-86
2023/09/23 10:42:01;;;;;;;9.93;1.90;;;;;;;;;;5026979;28;20029;-86
2023/09/23 10:44:27;;;;;;;10.18;1.90;;;;;;;;;;5024165;28;20145;-84
2023/09/23 10:47:14;;;;;;;18.95;4.20;;;;;;;;;;5020074;28;20475;-85
2023/09/23 10:49:43;;;;;;;10.75;3.15;;;;;;;;;;5023343;28;20029;-84
2023/09/23 10:52:46;;;;;;;11.82;1.83;;;;;;;;;;5017616;28;20026;-84
2023/09/23 11:02:05;;;;;;;16.73;2.97;;;;;;;;;;4973019;28;20041;-85
2023/09/23 11:05:15;;;;;;;15.65;2.35;;;;;;;;;;4945046;28;20026;-86
2023/09/23 12:17:01;;;;;;;12.38;2.55;;;;;;;;;;5130784;27;20108;-83
2023/09/23 13:06:27;;;;;;;12.88;3.17;;;;;;;;;;4900589;29;20044;-85
2023/09/23 13:08:55;;;;;;;12.60;2.40;;;;;;;;;;4883042;29;20143;-84
2023/09/23 13:11:33;;;;;;;17.80;3.20;;;;;;;;;;4886662;29;20088;-84
2023/09/23 13:20:36;;;;;;;14.55;3.28;;;;;;;;;;4851188;29;20104;-85
2023/09/23 13:23:04;;;;;;;16.63;3.13;;;;;;;;;;4838721;29;20495;-84
2023/09/23 13:32:03;;;;;;;16.33;2.78;;;;;;;;;;4910879;29;20652;-85
2023/09/23 13:34:48;;;;;;;8.25;2.10;;;;;;;;;;4897712;29;20028;-85
2023/09/23 13:37:14;;;;;;;16.88;3.53;;;;;;;;;;4901697;29;20028;-83
2023/09/23 13:39:49;;;;;;;14.30;2.75;;;;;;;;;;4901140;29;20055;-84
2023/09/23 13:42:24;;;;;;;11.57;1.73;;;;;;;;;;4908066;29;20558;-83
2023/09/23 13:49:09;;;;;;;6.45;2.63;;;;;;;;;;5068578;28;20445;-82
2023/09/23 13:55:58;;;;;;;9.30;2.20;;;;;;;;;;5090601;27;20422;-84
2023/09/23 13:58:24;;;;;;;15.98;3.90;;;;;;;;;;5073998;28;20032;-84
2023/09/23 14:01:34;;;;;;;7.20;1.98;;;;;;;;;;5083088;28;20523;-85
2023/09/23 14:09:17;;;;;;;3.42;0.93;;;;;;;;;;5141124;27;20837;-83
2023/09/23 14:22:54;;;;;;;5.40;2.08;;;;;;;;;;5059569;28;20123;-80
2023/09/23 14:25:23;;;;;;;4.60;1.42;;;;;;;;;;5049597;28;20032;-79
2023/09/23 14:28:42;;;;;;;14.77;1.55;;;;;;;;;;4988185;28;20825;-81
2023/09/23 14:31:17;;;;;;;8.95;2.05;;;;;;;;;;4988488;28;20054;-83
2023/09/23 14:33:44;;;;;;;8.00;1.80;;;;;;;;;;4987084;28;20467;-81
2023/09/23 14:36:10;;;;;;;9.13;1.20;;;;;;;;;;4986740;28;20026;-78
2023/09/23 14:38:36;;;;;;;4.40;1.23;;;;;;;;;;4988196;28;20050;-81
2023/09/23 14:43:19;;;;;;;5.13;1.90;;;24.90;58.70;;;;;;4987812;28;20762;-81
2023/09/23 14:45:44;;;;;;;5.28;2.50;;;24.80;59.10;;;;;;4987153;28;20100;-84
2023/09/23 14:48:11;;;;;;;10.35;3.92;;;;;;;;;;4975872;28;20046;-82
2023/09/23 14:50:39;;;;;;;9.07;2.67;;;24.40;60.00;;;;;;4976732;28;20030;-81
2023/09/23 14:53:05;;;;;;;5.78;1.83;;;24.40;60.70;;;;;;4986715;28;20038;-79
2023/09/23 14:57:46;;;;;;;11.32;1.70;;;24.10;62.50;;;;;;5070728;28;20376;-78
2023/09/23 15:00:58;;;;;;;9.75;2.03;;;;;;;;;;5071016;28;20079;-79
2023/09/23 15:03:03;;;;;;;9.20;2.47;;;23.70;63.90;;;;;;5062431;28;20460;-85
2023/09/23 15:05:39;;;;;;;10.52;2.13;;;23.70;65.90;;;;;;5068848;28;20032;-84
2023/09/23 15:08:05;;;;;;;9.77;1.67;;;23.50;66.80;;;;;;5069601;28;20059;-83
2023/09/23 15:10:50;;;;;;;4.80;0.65;;;23.20;64.90;;;;;;5069293;28;20017;-86
2023/09/23 15:13:19;;;;;;;5.20;0.80;;;23.00;64.90;;;;;;5068164;28;20524;-84
2023/09/23 15:16:02;;;;;;;7.47;0.75;;;22.80;65.80;;;;;;5068722;28;20039;-85
2023/09/23 15:28:20;;;;;;;3.88;1.23;;;22.50;71.20;;;;;;5048063;28;20035;-84
2023/09/23 15:31:11;;;;;;;2.15;0.80;;;22.50;70.00;;;;;;5047459;28;20052;-84
2023/09/23 15:33:40;;;;;;;6.93;1.65;;;22.50;70.20;;;;;;5029638;28;20037;-82
2023/09/23 15:36:47;;;;;;;2.03;0.95;;;22.40;70.90;;;;;;5047326;28;20029;-82
2023/09/23 15:39:51;;;;;;;;;;;;;;;;;;;;;
2023/09/23 15:42:27;;;;;;;3.85;0.75;;;22.10;74.60;;;;;;4929672;29;20036;-85
2023/09/23 15:45:04;;;;;;;9.45;1.00;;;21.90;77.80;;;;;;4927393;29;20036;-86
2023/09/23 15:47:50;;;;;;;9.43;1.15;;;21.80;80.40;;;;;;4927185;29;20443;-84
2023/09/23 15:50:26;;;;;;;1.67;0.80;;;21.70;86.90;;;;;;4926069;29;20043;-83
2023/09/23 15:53:05;;;;;;;4.75;1.10;;;21.60;93.50;;;;;;4932837;29;20039;-87
2023/09/23 15:55:34;;;;;;;2.13;1.10;;;21.60;98.00;;;;;;4942961;28;20126;-84
2023/09/23 15:58:10;;;;;;;2.33;0.77;;;21.50;99.90;;;;;;4952273;28;20530;-83
2023/09/23 16:06:34;;;;;;;2.70;0.90;;;21.00;99.90;;;;;;5110933;27;20451;-86
